Laukaa, Finland
Kieli:  Suomi
CurCond
Päivitetty24/06/2019 15:35 
 

Lähistön Lentoasemien Säätiloja:

 

EFJY - Jyvaskyla (mil/C,) Finland
Etäisyys Sääasemalta: PKo 21km
Päivitetty: 24/06/2019 18:50
Selkeätä
Selkeätä
 Tuulen suunta PLu
Tuuli: PLu 17 km/h
Lämpötila: 19°C
Kastepiste: 7°C
Ilmankosteus: 46%
Ilmanpaine: 1026 hPa
Yhteenveto: Selkeätä
Näkyvyys: Enemmän Kuin 10 km
2019/06/24 15:50 EFJY 241550Z AUTO 33009KT CAVOK 19/07 Q1026
EFHA - Halli (fin-Afb), Finland
Etäisyys Sääasemalta: Lo 56km
Päivitetty: 24/06/2019 18:50
Selkeätä
Selkeätä
 Tuulen suunta Lu
Tuuli: Lu 20 km/h
Lämpötila: 19°C
Kastepiste: 4°C
Ilmankosteus: 37%
Ilmanpaine: 1027 hPa
Yhteenveto: Selkeätä
Näkyvyys: Enemmän Kuin 10 km
2019/06/24 15:50 EFHA 241550Z AUTO 31011KT 280V340 CAVOK 19/04 Q1027
EFMI - Mikkeli, Finland
Etäisyys Sääasemalta: IKa 105km
Päivitetty: 24/06/2019 18:50
Selkeätä
Selkeätä
 Tuulen suunta Lu
Tuuli: Lu 7 km/h
Lämpötila: 18°C
Kastepiste: 7°C
Ilmankosteus: 49%
Ilmanpaine: 1026 hPa
Yhteenveto: Selkeätä
Näkyvyys: Enemmän Kuin 10 km
2019/06/24 15:50 EFMI 241550Z AUTO 31004KT 240V030 CAVOK 18/07 Q1026
 
EFTP - Tampere/Pirkkala, Finland
Etäisyys Sääasemalta: Lo 135km
Päivitetty: 24/06/2019 18:50
Selkeätä
Selkeätä
 Tuulen suunta LLu
Tuuli: LLu 17 km/h
Lämpötila: 19°C
Kastepiste: 5°C
Ilmankosteus: 40%
Ilmanpaine: 1028 hPa
Yhteenveto: Selkeätä
Näkyvyys: Enemmän Kuin 10 km
2019/06/24 15:50 EFTP 241550Z AUTO 29009KT CAVOK 19/05 Q1028
EFKU - Kuopio (mil/Civ), Finland
Etäisyys Sääasemalta: Ko 146km
Päivitetty: 24/06/2019 18:50
Selkeätä
Selkeätä
 Tuulen suunta LLu
Tuuli: LLu 15 km/h
Lämpötila: 18°C
Kastepiste: 5°C
Ilmankosteus: 43%
Ilmanpaine: 1025 hPa
Yhteenveto: Selkeätä
Näkyvyys: Enemmän Kuin 10 km
2019/06/24 15:50 EFKU 241550Z AUTO 29008KT CAVOK 18/05 Q1025
EFSI - Seinajoki-Ilmajo, Finland
Etäisyys Sääasemalta: LLu 149km
Päivitetty: 24/06/2019 18:50
Selkeätä
Selkeätä
 Tuulen suunta LLu
Tuuli: LLu 15 km/h
Lämpötila: 18°C
Kastepiste: 6°C
Ilmankosteus: 46%
Ilmanpaine: 1028 hPa
Yhteenveto: Selkeätä
Näkyvyys: Enemmän Kuin 10 km
2019/06/24 15:50 EFSI 241550Z AUTO 30008KT 260V350 CAVOK 18/06 Q1028